GLO1704 SBBR-SBMO
Flight info
| Callsign | GLO1704 |
|---|---|
| Flight time | 2h 3m |
| Altitude | 39000 |
| Route | UGTAK UZ19 LOLIP DCT TEMEV UZ23 ANDIG DCT MCE |
| Aircraft | B737/M-SDE2E3FGHIRWXY/LB1 |
Departure
| Time | 2026-04-17 12:28 |
|---|---|
| Airport | Presidente Juscelino Kubitschek International Airport (SBBR) |
Arrival
| Time | 2026-04-17 14:32 |
|---|---|
| Airport | Zumbi dos Palmares International Airport (SBMO) |
| Time | Latitude | Longitude | Altitude | Speed | Heading |
|---|---|---|---|---|---|
| 2026-04-17 12:00 | -15.87060 | -47.92001 | 3471 ft | 0 kts | 257° |
| 2026-04-17 12:07 | -15.87059 | -47.91999 | 3444 ft | 1 kts | 257° |
| 2026-04-17 12:07 | -15.87055 | -47.91981 | 3470 ft | 3 kts | 248° |
| 2026-04-17 12:07 | -15.87046 | -47.91963 | 3470 ft | 3 kts | 235° |
| 2026-04-17 12:08 | -15.87033 | -47.91947 | 3470 ft | 3 kts | 218° |
| 2026-04-17 12:08 | -15.87016 | -47.91936 | 3469 ft | 3 kts | 198° |
| 2026-04-17 12:08 | -15.86999 | -47.91933 | 3469 ft | 2 kts | 177° |
| 2026-04-17 12:08 | -15.86996 | -47.91933 | 3470 ft | 1 kts | 175° |
| 2026-04-17 12:15 | -15.87006 | -47.91932 | 3470 ft | 4 kts | 175° |
| 2026-04-17 12:15 | -15.87050 | -47.91926 | 3471 ft | 8 kts | 163° |
| 2026-04-17 12:15 | -15.87070 | -47.91877 | 3471 ft | 8 kts | 86° |
| 2026-04-17 12:15 | -15.87065 | -47.91818 | 3471 ft | 8 kts | 89° |
| 2026-04-17 12:16 | -15.87062 | -47.91761 | 3471 ft | 8 kts | 86° |
| 2026-04-17 12:16 | -15.87062 | -47.91705 | 3471 ft | 8 kts | 105° |
| 2026-04-17 12:16 | -15.87105 | -47.91682 | 3470 ft | 7 kts | 176° |
| 2026-04-17 12:16 | -15.87155 | -47.91679 | 3470 ft | 7 kts | 176° |
| 2026-04-17 12:17 | -15.87203 | -47.91676 | 3471 ft | 7 kts | 176° |
| 2026-04-17 12:17 | -15.87250 | -47.91672 | 3470 ft | 7 kts | 176° |
| 2026-04-17 12:17 | -15.87297 | -47.91669 | 3470 ft | 7 kts | 176° |
| 2026-04-17 12:17 | -15.87344 | -47.91666 | 3470 ft | 7 kts | 176° |
| 2026-04-17 12:18 | -15.87391 | -47.91663 | 3470 ft | 7 kts | 176° |
| 2026-04-17 12:18 | -15.87451 | -47.91659 | 3470 ft | 10 kts | 176° |
| 2026-04-17 12:18 | -15.87532 | -47.91653 | 3465 ft | 13 kts | 176° |
| 2026-04-17 12:18 | -15.87615 | -47.91647 | 3464 ft | 11 kts | 176° |
| 2026-04-17 12:19 | -15.87692 | -47.91644 | 3463 ft | 11 kts | 178° |
| 2026-04-17 12:19 | -15.87732 | -47.91662 | 3461 ft | 6 kts | 240° |
| 2026-04-17 12:19 | -15.87739 | -47.91711 | 3462 ft | 9 kts | 267° |
| 2026-04-17 12:19 | -15.87744 | -47.91790 | 3464 ft | 13 kts | 266° |
| 2026-04-17 12:20 | -15.87750 | -47.91884 | 3466 ft | 13 kts | 266° |
| 2026-04-17 12:20 | -15.87756 | -47.91975 | 3468 ft | 13 kts | 266° |
| 2026-04-17 12:20 | -15.87762 | -47.92065 | 3468 ft | 12 kts | 266° |
| 2026-04-17 12:20 | -15.87768 | -47.92152 | 3471 ft | 12 kts | 266° |
| 2026-04-17 12:21 | -15.87773 | -47.92237 | 3472 ft | 12 kts | 266° |
| 2026-04-17 12:21 | -15.87779 | -47.92320 | 3474 ft | 11 kts | 265° |
| 2026-04-17 12:21 | -15.87783 | -47.92401 | 3474 ft | 11 kts | 266° |
| 2026-04-17 12:21 | -15.87788 | -47.92483 | 3475 ft | 13 kts | 265° |
| 2026-04-17 12:22 | -15.87795 | -47.92587 | 3476 ft | 15 kts | 266° |
| 2026-04-17 12:22 | -15.87802 | -47.92694 | 3476 ft | 15 kts | 266° |
| 2026-04-17 12:22 | -15.87809 | -47.92796 | 3480 ft | 14 kts | 266° |
| 2026-04-17 12:22 | -15.87815 | -47.92894 | 3480 ft | 13 kts | 269° |
| 2026-04-17 12:23 | -15.87820 | -47.92987 | 3481 ft | 13 kts | 267° |
| 2026-04-17 12:23 | -15.87827 | -47.93078 | 3483 ft | 12 kts | 265° |
| 2026-04-17 12:23 | -15.87832 | -47.93167 | 3486 ft | 12 kts | 267° |
| 2026-04-17 12:23 | -15.87838 | -47.93254 | 3500 ft | 12 kts | 266° |
| 2026-04-17 12:24 | -15.87843 | -47.93338 | 3495 ft | 12 kts | 265° |
| 2026-04-17 12:24 | -15.87849 | -47.93421 | 3504 ft | 11 kts | 265° |
| 2026-04-17 12:24 | -15.87855 | -47.93501 | 3498 ft | 11 kts | 267° |
| 2026-04-17 12:24 | -15.87859 | -47.93579 | 3500 ft | 11 kts | 267° |
| 2026-04-17 12:25 | -15.87863 | -47.93654 | 3508 ft | 10 kts | 266° |
| 2026-04-17 12:25 | -15.87868 | -47.93728 | 3505 ft | 10 kts | 266° |
| 2026-04-17 12:25 | -15.87873 | -47.93799 | 3508 ft | 10 kts | 266° |
| 2026-04-17 12:25 | -15.87878 | -47.93868 | 3511 ft | 10 kts | 265° |
| 2026-04-17 12:26 | -15.87883 | -47.93936 | 3508 ft | 9 kts | 266° |
| 2026-04-17 12:26 | -15.87912 | -47.93989 | 3508 ft | 9 kts | 209° |
| 2026-04-17 12:26 | -15.87973 | -47.93995 | 3511 ft | 9 kts | 177° |
| 2026-04-17 12:26 | -15.88033 | -47.93992 | 3512 ft | 9 kts | 175° |
| 2026-04-17 12:27 | -15.88065 | -47.93981 | 3512 ft | 4 kts | 117° |
| 2026-04-17 12:27 | -15.88065 | -47.93965 | 3510 ft | 0 kts | 85° |
| 2026-04-17 12:27 | -15.88061 | -47.93908 | 3511 ft | 34 kts | 85° |
| 2026-04-17 12:27 | -15.88042 | -47.93621 | 3503 ft | 85 kts | 86° |
| 2026-04-17 12:28 | -15.87988 | -47.92763 | 3479 ft | 150 kts | 86° |
| 2026-04-17 12:28 | -15.87917 | -47.91539 | 3796 ft | 178 kts | 86° |
| 2026-04-17 12:28 | -15.87819 | -47.89879 | 5151 ft | 168 kts | 86° |
| 2026-04-17 12:28 | -15.87768 | -47.89049 | 5674 ft | 175 kts | 86° |
| 2026-04-17 12:29 | -15.87685 | -47.87666 | 6004 ft | 211 kts | 85° |
| 2026-04-17 12:29 | -15.87578 | -47.86034 | 6249 ft | 245 kts | 85° |
| 2026-04-17 12:29 | -15.87453 | -47.84142 | 6635 ft | 273 kts | 85° |
| 2026-04-17 12:29 | -15.87323 | -47.82169 | 7436 ft | 283 kts | 85° |
| 2026-04-17 12:30 | -15.87186 | -47.80057 | 8230 ft | 294 kts | 86° |
| 2026-04-17 12:30 | -15.87058 | -47.77924 | 8943 ft | 301 kts | 86° |
| 2026-04-17 12:30 | -15.86944 | -47.75734 | 9670 ft | 313 kts | 87° |
| 2026-04-17 12:30 | -15.86820 | -47.73481 | 10669 ft | 311 kts | 86° |
| 2026-04-17 12:31 | -15.86650 | -47.71165 | 11085 ft | 335 kts | 85° |
| 2026-04-17 12:31 | -15.86416 | -47.68686 | 11584 ft | 350 kts | 84° |
| 2026-04-17 12:31 | -15.86168 | -47.66167 | 12468 ft | 353 kts | 85° |
| 2026-04-17 12:31 | -15.85929 | -47.63613 | 13347 ft | 357 kts | 85° |
| 2026-04-17 12:32 | -15.85700 | -47.61026 | 14115 ft | 363 kts | 85° |
| 2026-04-17 12:32 | -15.85479 | -47.58387 | 14746 ft | 371 kts | 86° |
| 2026-04-17 12:32 | -15.85084 | -47.55714 | 15378 ft | 379 kts | 71° |
| 2026-04-17 12:32 | -15.83774 | -47.53333 | 16037 ft | 384 kts | 47° |
| 2026-04-17 12:33 | -15.81708 | -47.51623 | 16946 ft | 380 kts | 29° |
| 2026-04-17 12:33 | -15.79373 | -47.50313 | 17700 ft | 383 kts | 26° |
| 2026-04-17 12:33 | -15.76984 | -47.49036 | 18382 ft | 389 kts | 26° |
| 2026-04-17 12:33 | -15.74604 | -47.47681 | 19037 ft | 392 kts | 28° |
| 2026-04-17 12:34 | -15.72254 | -47.46216 | 19698 ft | 394 kts | 30° |
| 2026-04-17 12:34 | -15.69968 | -47.44690 | 20322 ft | 398 kts | 32° |
| 2026-04-17 12:34 | -15.67650 | -47.43084 | 20910 ft | 402 kts | 32° |
| 2026-04-17 12:34 | -15.65320 | -47.41440 | 21458 ft | 407 kts | 32° |
| 2026-04-17 12:35 | -15.62971 | -47.39777 | 22029 ft | 411 kts | 32° |
| 2026-04-17 12:35 | -15.60599 | -47.38102 | 22615 ft | 414 kts | 32° |
| 2026-04-17 12:35 | -15.58203 | -47.36415 | 23167 ft | 418 kts | 32° |
| 2026-04-17 12:35 | -15.55878 | -47.34583 | 23657 ft | 425 kts | 43° |
| 2026-04-17 12:37 | -15.44847 | -47.15779 | 26768 ft | 447 kts | 59° |
| 2026-04-17 12:37 | -15.43253 | -47.13000 | 27186 ft | 450 kts | 59° |
| 2026-04-17 12:38 | -15.41645 | -47.10205 | 27604 ft | 453 kts | 59° |
| 2026-04-17 12:38 | -15.40025 | -47.07395 | 28014 ft | 456 kts | 59° |
| 2026-04-17 12:38 | -15.38395 | -47.04568 | 28409 ft | 458 kts | 59° |
| 2026-04-17 12:38 | -15.36754 | -47.01724 | 28807 ft | 461 kts | 59° |
| 2026-04-17 12:39 | -15.35099 | -46.98857 | 29192 ft | 464 kts | 59° |
| 2026-04-17 12:39 | -15.33438 | -46.95979 | 29556 ft | 467 kts | 60° |
| 2026-04-17 12:39 | -15.31763 | -46.93078 | 29929 ft | 470 kts | 60° |
| 2026-04-17 12:39 | -15.30082 | -46.90168 | 30250 ft | 472 kts | 60° |
| 2026-04-17 12:40 | -15.28393 | -46.87243 | 30561 ft | 475 kts | 60° |
| 2026-04-17 12:40 | -15.26691 | -46.84298 | 30867 ft | 477 kts | 60° |
| 2026-04-17 12:40 | -15.25007 | -46.81386 | 31153 ft | 479 kts | 60° |
| 2026-04-17 12:40 | -15.23287 | -46.78413 | 31444 ft | 481 kts | 60° |
| 2026-04-17 12:41 | -15.21562 | -46.75431 | 31731 ft | 484 kts | 60° |
| 2026-04-17 12:41 | -15.19830 | -46.72439 | 32018 ft | 486 kts | 60° |
| 2026-04-17 12:41 | -15.18089 | -46.69432 | 32389 ft | 485 kts | 60° |
| 2026-04-17 12:41 | -15.16354 | -46.66439 | 32831 ft | 484 kts | 60° |
| 2026-04-17 12:42 | -15.14625 | -46.63456 | 33283 ft | 482 kts | 60° |
| 2026-04-17 12:42 | -15.12897 | -46.60475 | 33704 ft | 482 kts | 60° |
| 2026-04-17 12:42 | -15.11173 | -46.57502 | 34081 ft | 482 kts | 59° |
| 2026-04-17 12:42 | -15.09468 | -46.54563 | 34447 ft | 481 kts | 60° |
| 2026-04-17 12:43 | -15.07745 | -46.51595 | 34848 ft | 479 kts | 60° |
| 2026-04-17 12:43 | -15.06033 | -46.48647 | 35245 ft | 478 kts | 60° |
| 2026-04-17 12:43 | -15.04320 | -46.45697 | 35597 ft | 477 kts | 60° |
| 2026-04-17 12:43 | -15.02610 | -46.42754 | 35936 ft | 476 kts | 60° |
| 2026-04-17 12:44 | -15.00904 | -46.39820 | 36267 ft | 476 kts | 60° |
| 2026-04-17 12:44 | -14.99200 | -46.36888 | 36603 ft | 475 kts | 60° |
| 2026-04-17 12:44 | -14.97502 | -46.33969 | 36961 ft | 473 kts | 60° |
| 2026-04-17 12:44 | -14.95807 | -46.31055 | 37314 ft | 472 kts | 60° |
| 2026-04-17 12:45 | -14.94116 | -46.28150 | 37626 ft | 471 kts | 60° |
| 2026-04-17 12:45 | -14.92426 | -46.25247 | 37947 ft | 470 kts | 60° |
| 2026-04-17 12:45 | -14.90781 | -46.22387 | 38285 ft | 468 kts | 64° |
| 2026-04-17 12:45 | -14.89554 | -46.19295 | 38577 ft | 464 kts | 73° |
| 2026-04-17 12:46 | -14.88580 | -46.16123 | 38863 ft | 462 kts | 75° |
| 2026-04-17 12:46 | -14.87658 | -46.12936 | 38982 ft | 465 kts | 75° |
| 2026-04-17 12:46 | -14.86734 | -46.09719 | 38974 ft | 467 kts | 75° |
| 2026-04-17 12:47 | -14.84841 | -46.03291 | 38970 ft | 465 kts | 75° |
| 2026-04-17 12:47 | -14.82923 | -45.96974 | 38974 ft | 459 kts | 74° |
| 2026-04-17 12:48 | -14.81008 | -45.90734 | 38977 ft | 457 kts | 74° |
| 2026-04-17 12:48 | -14.79083 | -45.84472 | 38984 ft | 457 kts | 74° |
| 2026-04-17 12:49 | -14.77161 | -45.78218 | 38975 ft | 457 kts | 74° |
| 2026-04-17 12:49 | -14.75239 | -45.71964 | 38982 ft | 457 kts | 74° |
| 2026-04-17 12:50 | -14.73314 | -45.65711 | 38987 ft | 457 kts | 73° |
| 2026-04-17 12:50 | -14.71382 | -45.59441 | 38981 ft | 458 kts | 73° |
| 2026-04-17 12:51 | -14.69446 | -45.53164 | 38980 ft | 459 kts | 73° |
| 2026-04-17 12:51 | -14.67513 | -45.46902 | 38977 ft | 460 kts | 73° |
| 2026-04-17 12:52 | -14.65562 | -45.40591 | 38976 ft | 461 kts | 73° |
| 2026-04-17 12:52 | -14.63608 | -45.34270 | 38977 ft | 462 kts | 73° |
| 2026-04-17 12:53 | -14.61647 | -45.27941 | 38971 ft | 463 kts | 73° |
| 2026-04-17 12:53 | -14.59680 | -45.21602 | 38964 ft | 464 kts | 73° |
| 2026-04-17 12:54 | -14.57709 | -45.15255 | 38979 ft | 464 kts | 73° |
| 2026-04-17 12:54 | -14.55748 | -45.08947 | 38965 ft | 464 kts | 73° |
| 2026-04-17 12:55 | -14.53771 | -45.02592 | 38974 ft | 464 kts | 73° |
| 2026-04-17 12:55 | -14.51793 | -44.96243 | 38971 ft | 465 kts | 73° |
| 2026-04-17 12:56 | -14.49814 | -44.89891 | 38963 ft | 464 kts | 73° |
| 2026-04-17 12:56 | -14.47836 | -44.83553 | 38964 ft | 463 kts | 73° |
| 2026-04-17 12:57 | -14.45872 | -44.77269 | 38973 ft | 463 kts | 73° |
| 2026-04-17 12:57 | -14.43895 | -44.70961 | 38972 ft | 462 kts | 73° |
| 2026-04-17 12:58 | -14.41912 | -44.64636 | 38960 ft | 462 kts | 73° |
| 2026-04-17 12:58 | -14.39930 | -44.58322 | 38958 ft | 462 kts | 73° |
| 2026-04-17 12:59 | -14.37952 | -44.52021 | 38966 ft | 461 kts | 73° |
| 2026-04-17 12:59 | -14.35986 | -44.45769 | 38972 ft | 461 kts | 73° |
| 2026-04-17 13:00 | -14.34003 | -44.39469 | 38957 ft | 462 kts | 73° |
| 2026-04-17 13:00 | -14.32018 | -44.33169 | 38955 ft | 461 kts | 73° |
| 2026-04-17 13:01 | -14.30035 | -44.26879 | 38963 ft | 461 kts | 73° |
| 2026-04-17 13:01 | -14.28051 | -44.20592 | 38960 ft | 460 kts | 73° |
| 2026-04-17 13:02 | -14.26068 | -44.14314 | 38949 ft | 460 kts | 73° |
| 2026-04-17 13:02 | -14.24099 | -44.08091 | 38957 ft | 460 kts | 73° |
| 2026-04-17 13:03 | -14.22113 | -44.01814 | 38956 ft | 459 kts | 73° |
| 2026-04-17 13:03 | -14.20130 | -43.95554 | 38953 ft | 459 kts | 73° |
| 2026-04-17 13:04 | -14.18148 | -43.89299 | 38949 ft | 459 kts | 73° |
| 2026-04-17 13:04 | -14.16176 | -43.83082 | 38947 ft | 459 kts | 73° |
| 2026-04-17 13:05 | -14.14191 | -43.76830 | 38950 ft | 459 kts | 73° |
| 2026-04-17 13:05 | -14.12206 | -43.70584 | 38947 ft | 459 kts | 73° |
| 2026-04-17 13:06 | -14.10217 | -43.64330 | 38946 ft | 459 kts | 73° |
| 2026-04-17 13:06 | -14.08224 | -43.58074 | 38942 ft | 459 kts | 73° |
| 2026-04-17 13:07 | -14.06232 | -43.51827 | 38945 ft | 459 kts | 73° |
| 2026-04-17 13:07 | -14.04239 | -43.45578 | 38942 ft | 459 kts | 73° |
| 2026-04-17 13:08 | -14.02254 | -43.39360 | 38943 ft | 459 kts | 73° |
| 2026-04-17 13:08 | -14.00262 | -43.33124 | 38940 ft | 458 kts | 73° |
| 2026-04-17 13:09 | -13.98265 | -43.26886 | 38944 ft | 458 kts | 73° |
| 2026-04-17 13:09 | -13.96267 | -43.20658 | 38941 ft | 458 kts | 73° |
| 2026-04-17 13:10 | -13.94266 | -43.14426 | 38944 ft | 458 kts | 73° |
| 2026-04-17 13:10 | -13.92277 | -43.08235 | 38941 ft | 458 kts | 73° |
| 2026-04-17 13:11 | -13.90277 | -43.02013 | 38944 ft | 458 kts | 73° |
| 2026-04-17 13:11 | -13.88274 | -42.95788 | 38946 ft | 458 kts | 73° |
| 2026-04-17 13:12 | -13.86272 | -42.89573 | 38951 ft | 458 kts | 73° |
| 2026-04-17 13:12 | -13.83274 | -42.80274 | 38960 ft | 458 kts | 73° |
| 2026-04-17 13:13 | -13.81262 | -42.74045 | 38959 ft | 459 kts | 73° |
| 2026-04-17 13:13 | -13.79249 | -42.67815 | 38967 ft | 459 kts | 73° |
| 2026-04-17 13:14 | -13.77231 | -42.61577 | 38966 ft | 459 kts | 73° |
| 2026-04-17 13:14 | -13.75214 | -42.55349 | 38972 ft | 459 kts | 73° |
| 2026-04-17 13:15 | -13.73206 | -42.49151 | 38970 ft | 459 kts | 73° |
| 2026-04-17 13:15 | -13.71185 | -42.42922 | 38974 ft | 459 kts | 73° |
| 2026-04-17 13:16 | -13.69165 | -42.36699 | 38977 ft | 459 kts | 73° |
| 2026-04-17 13:16 | -13.67142 | -42.30475 | 38974 ft | 458 kts | 73° |
| 2026-04-17 13:17 | -13.65119 | -42.24253 | 38976 ft | 458 kts | 73° |
| 2026-04-17 13:17 | -13.63437 | -42.19086 | 38976 ft | 458 kts | 73° |
| 2026-04-17 13:18 | -13.61081 | -42.11866 | 38979 ft | 458 kts | 73° |
| 2026-04-17 13:18 | -13.59054 | -42.05661 | 38974 ft | 458 kts | 73° |
| 2026-04-17 13:19 | -13.57355 | -42.00461 | 38977 ft | 458 kts | 73° |
| 2026-04-17 13:19 | -13.55326 | -41.94257 | 38982 ft | 458 kts | 73° |
| 2026-04-17 13:20 | -13.53296 | -41.88056 | 38979 ft | 458 kts | 73° |
| 2026-04-17 13:20 | -13.51275 | -41.81890 | 38984 ft | 457 kts | 73° |
| 2026-04-17 13:21 | -13.49245 | -41.75696 | 38984 ft | 457 kts | 73° |
| 2026-04-17 13:21 | -13.47215 | -41.69509 | 38987 ft | 457 kts | 73° |
| 2026-04-17 13:22 | -13.45187 | -41.63334 | 38984 ft | 456 kts | 73° |
| 2026-04-17 13:22 | -13.43155 | -41.57151 | 38992 ft | 455 kts | 73° |
| 2026-04-17 13:23 | -13.41141 | -41.51030 | 38991 ft | 455 kts | 73° |
| 2026-04-17 13:23 | -13.39116 | -41.44878 | 38995 ft | 454 kts | 73° |
| 2026-04-17 13:24 | -13.37093 | -41.38739 | 38995 ft | 454 kts | 73° |
| 2026-04-17 13:24 | -13.35067 | -41.32599 | 38996 ft | 453 kts | 73° |
| 2026-04-17 13:25 | -13.33045 | -41.26472 | 38994 ft | 453 kts | 73° |
| 2026-04-17 13:25 | -13.31018 | -41.20339 | 38997 ft | 453 kts | 73° |
| 2026-04-17 13:26 | -13.29005 | -41.14252 | 38991 ft | 453 kts | 73° |
| 2026-04-17 13:26 | -13.26977 | -41.08124 | 38989 ft | 453 kts | 73° |
| 2026-04-17 13:27 | -13.24945 | -41.01994 | 38982 ft | 454 kts | 73° |
| 2026-04-17 13:27 | -13.22912 | -40.95862 | 38981 ft | 454 kts | 73° |
| 2026-04-17 13:28 | -13.20874 | -40.89721 | 38976 ft | 454 kts | 73° |
| 2026-04-17 13:28 | -13.18835 | -40.83579 | 38978 ft | 455 kts | 73° |
| 2026-04-17 13:29 | -13.16793 | -40.77437 | 38983 ft | 455 kts | 73° |
| 2026-04-17 13:29 | -13.14755 | -40.71300 | 38978 ft | 455 kts | 73° |
| 2026-04-17 13:30 | -13.12729 | -40.65194 | 38980 ft | 455 kts | 73° |
| 2026-04-17 13:30 | -13.10685 | -40.59055 | 38978 ft | 455 kts | 73° |
| 2026-04-17 13:31 | -13.08632 | -40.52907 | 38979 ft | 455 kts | 73° |
| 2026-04-17 13:31 | -13.06580 | -40.46766 | 38979 ft | 455 kts | 73° |
| 2026-04-17 13:32 | -13.04527 | -40.40618 | 38977 ft | 455 kts | 73° |
| 2026-04-17 13:32 | -13.02473 | -40.34478 | 38977 ft | 455 kts | 73° |
| 2026-04-17 13:33 | -13.00413 | -40.28334 | 38978 ft | 456 kts | 73° |
| 2026-04-17 13:33 | -12.98351 | -40.22193 | 38980 ft | 455 kts | 73° |
| 2026-04-17 13:34 | -12.96303 | -40.16095 | 38976 ft | 455 kts | 73° |
| 2026-04-17 13:34 | -12.94239 | -40.09952 | 38977 ft | 455 kts | 73° |
| 2026-04-17 13:35 | -12.92175 | -40.03813 | 38977 ft | 455 kts | 73° |
| 2026-04-17 13:35 | -12.90165 | -39.97844 | 38967 ft | 454 kts | 73° |
| 2026-04-17 13:36 | -12.88100 | -39.91712 | 38972 ft | 454 kts | 73° |
| 2026-04-17 13:36 | -12.86035 | -39.85588 | 38971 ft | 454 kts | 73° |
| 2026-04-17 13:37 | -12.83951 | -39.79474 | 38962 ft | 454 kts | 73° |
| 2026-04-17 13:37 | -12.81843 | -39.73375 | 38962 ft | 454 kts | 72° |
| 2026-04-17 13:38 | -12.79735 | -39.67277 | 38962 ft | 454 kts | 73° |
| 2026-04-17 13:38 | -12.77627 | -39.61169 | 38957 ft | 454 kts | 73° |
| 2026-04-17 13:39 | -12.75523 | -39.55073 | 38957 ft | 454 kts | 73° |
| 2026-04-17 13:39 | -12.73430 | -39.49016 | 38953 ft | 454 kts | 73° |
| 2026-04-17 13:40 | -12.71324 | -39.42925 | 38952 ft | 453 kts | 73° |
| 2026-04-17 13:40 | -12.69219 | -39.36841 | 38952 ft | 453 kts | 73° |
| 2026-04-17 13:41 | -12.67111 | -39.30755 | 38946 ft | 453 kts | 73° |
| 2026-04-17 13:41 | -12.65005 | -39.24677 | 38949 ft | 453 kts | 73° |
| 2026-04-17 13:42 | -12.63023 | -39.18559 | 38947 ft | 452 kts | 75° |
| 2026-04-17 13:42 | -12.61138 | -39.12420 | 38946 ft | 452 kts | 75° |
| 2026-04-17 13:43 | -12.59244 | -39.06278 | 38943 ft | 452 kts | 75° |
| 2026-04-17 13:43 | -12.57333 | -39.00144 | 38946 ft | 452 kts | 75° |
| 2026-04-17 13:44 | -12.55413 | -38.94014 | 38944 ft | 452 kts | 75° |
| 2026-04-17 13:44 | -12.53503 | -38.87921 | 38942 ft | 452 kts | 74° |
| 2026-04-17 13:45 | -12.51577 | -38.81782 | 38940 ft | 452 kts | 74° |
| 2026-04-17 13:45 | -12.49651 | -38.75649 | 38941 ft | 452 kts | 74° |
| 2026-04-17 13:46 | -12.47725 | -38.69518 | 38941 ft | 452 kts | 74° |
| 2026-04-17 13:46 | -12.45812 | -38.63434 | 38936 ft | 452 kts | 74° |
| 2026-04-17 13:47 | -12.43886 | -38.57317 | 38936 ft | 451 kts | 74° |
| 2026-04-17 13:47 | -12.41962 | -38.51208 | 38934 ft | 451 kts | 74° |
| 2026-04-17 13:48 | -12.40036 | -38.45099 | 38935 ft | 451 kts | 74° |
| 2026-04-17 13:48 | -12.38112 | -38.39000 | 38930 ft | 450 kts | 74° |
| 2026-04-17 13:49 | -12.36188 | -38.32907 | 38931 ft | 450 kts | 74° |
| 2026-04-17 13:49 | -12.34265 | -38.26823 | 38929 ft | 450 kts | 74° |
| 2026-04-17 13:50 | -12.32349 | -38.20766 | 38931 ft | 450 kts | 74° |
| 2026-04-17 13:50 | -12.30423 | -38.14680 | 38934 ft | 450 kts | 74° |
| 2026-04-17 13:51 | -12.27905 | -38.08830 | 38935 ft | 453 kts | 56° |
| 2026-04-17 13:51 | -12.25885 | -38.06350 | 38932 ft | 456 kts | 45° |
| 2026-04-17 13:51 | -12.23428 | -38.04297 | 38941 ft | 457 kts | 37° |
| 2026-04-17 13:52 | -12.18213 | -38.00577 | 38932 ft | 457 kts | 36° |
| 2026-04-17 13:52 | -12.12978 | -37.96862 | 38928 ft | 458 kts | 36° |
| 2026-04-17 13:53 | -12.07779 | -37.93097 | 38930 ft | 458 kts | 37° |
| 2026-04-17 13:53 | -12.02629 | -37.89339 | 38928 ft | 458 kts | 37° |
| 2026-04-17 13:54 | -11.94859 | -37.83673 | 38930 ft | 457 kts | 37° |
| 2026-04-17 13:55 | -11.87082 | -37.78012 | 38923 ft | 457 kts | 37° |
| 2026-04-17 13:56 | -11.76725 | -37.70511 | 38932 ft | 455 kts | 37° |
| 2026-04-17 13:56 | -11.71554 | -37.66766 | 38924 ft | 455 kts | 37° |
| 2026-04-17 13:57 | -11.66392 | -37.63030 | 38920 ft | 454 kts | 37° |
| 2026-04-17 13:58 | -11.58697 | -37.57462 | 38919 ft | 454 kts | 37° |
| 2026-04-17 13:58 | -11.50980 | -37.51882 | 38920 ft | 452 kts | 37° |
| 2026-04-17 13:59 | -11.43277 | -37.46316 | 38924 ft | 452 kts | 37° |
| 2026-04-17 14:00 | -11.38176 | -37.42632 | 38919 ft | 451 kts | 37° |
| 2026-04-17 14:00 | -11.33063 | -37.38942 | 38921 ft | 450 kts | 37° |
| 2026-04-17 14:01 | -11.27943 | -37.35248 | 38921 ft | 450 kts | 37° |
| 2026-04-17 14:01 | -11.22826 | -37.31557 | 38920 ft | 450 kts | 37° |
| 2026-04-17 14:02 | -11.17714 | -37.27872 | 38919 ft | 449 kts | 37° |
| 2026-04-17 14:02 | -11.12643 | -37.24218 | 38929 ft | 449 kts | 37° |
| 2026-04-17 14:03 | -11.07543 | -37.20544 | 38933 ft | 449 kts | 37° |
| 2026-04-17 14:03 | -11.02441 | -37.16870 | 38943 ft | 449 kts | 37° |
| 2026-04-17 14:04 | -10.97336 | -37.13201 | 38940 ft | 449 kts | 37° |
| 2026-04-17 14:04 | -10.92266 | -37.09571 | 38940 ft | 448 kts | 37° |
| 2026-04-17 14:05 | -10.87164 | -37.05918 | 38938 ft | 448 kts | 37° |
| 2026-04-17 14:05 | -10.82071 | -37.02272 | 38926 ft | 447 kts | 37° |
| 2026-04-17 14:06 | -10.76986 | -36.98632 | 38923 ft | 447 kts | 37° |
| 2026-04-17 14:06 | -10.71895 | -36.94989 | 38918 ft | 447 kts | 37° |
| 2026-04-17 14:06 | -10.69353 | -36.93171 | 38803 ft | 449 kts | 37° |
| 2026-04-17 14:07 | -10.67650 | -36.91952 | 38402 ft | 453 kts | 37° |
| 2026-04-17 14:07 | -10.64240 | -36.89513 | 37587 ft | 451 kts | 37° |
| 2026-04-17 14:07 | -10.61673 | -36.87678 | 36931 ft | 450 kts | 36° |
| 2026-04-17 14:07 | -10.59938 | -36.86437 | 36492 ft | 450 kts | 36° |
| 2026-04-17 14:08 | -10.57376 | -36.84607 | 35843 ft | 450 kts | 36° |
| 2026-04-17 14:08 | -10.54816 | -36.82778 | 35170 ft | 450 kts | 36° |
| 2026-04-17 14:08 | -10.52265 | -36.80955 | 34672 ft | 446 kts | 35° |
| 2026-04-17 14:08 | -10.49760 | -36.79165 | 34147 ft | 444 kts | 35° |
| 2026-04-17 14:09 | -10.47242 | -36.77367 | 33587 ft | 441 kts | 34° |
| 2026-04-17 14:09 | -10.44741 | -36.75582 | 33043 ft | 437 kts | 34° |
| 2026-04-17 14:09 | -10.42259 | -36.73811 | 32525 ft | 434 kts | 34° |
| 2026-04-17 14:09 | -10.39800 | -36.72056 | 32017 ft | 430 kts | 34° |
| 2026-04-17 14:10 | -10.37357 | -36.70313 | 31524 ft | 427 kts | 34° |
| 2026-04-17 14:10 | -10.34933 | -36.68584 | 31041 ft | 424 kts | 34° |
| 2026-04-17 14:10 | -10.32553 | -36.66886 | 30561 ft | 421 kts | 34° |
| 2026-04-17 14:10 | -10.30131 | -36.65158 | 30059 ft | 419 kts | 34° |
| 2026-04-17 14:11 | -10.27753 | -36.63463 | 29507 ft | 417 kts | 34° |
| 2026-04-17 14:11 | -10.25422 | -36.61802 | 28969 ft | 413 kts | 34° |
| 2026-04-17 14:11 | -10.23077 | -36.60130 | 28447 ft | 409 kts | 34° |
| 2026-04-17 14:11 | -10.20762 | -36.58480 | 27927 ft | 405 kts | 34° |
| 2026-04-17 14:12 | -10.18470 | -36.56846 | 27419 ft | 401 kts | 34° |
| 2026-04-17 14:12 | -10.16207 | -36.55220 | 26924 ft | 397 kts | 36° |
| 2026-04-17 14:12 | -10.14141 | -36.53371 | 26424 ft | 395 kts | 46° |
| 2026-04-17 14:13 | -10.10600 | -36.49181 | 25479 ft | 388 kts | 49° |
| 2026-04-17 14:13 | -10.08868 | -36.47098 | 24986 ft | 385 kts | 49° |
| 2026-04-17 14:13 | -10.07138 | -36.45022 | 24476 ft | 383 kts | 49° |
| 2026-04-17 14:13 | -10.05438 | -36.42992 | 23979 ft | 382 kts | 49° |
| 2026-04-17 14:14 | -10.03720 | -36.40947 | 23483 ft | 380 kts | 49° |
| 2026-04-17 14:14 | -10.02009 | -36.38915 | 22912 ft | 377 kts | 49° |
| 2026-04-17 14:14 | -10.00310 | -36.36902 | 22388 ft | 374 kts | 49° |
| 2026-04-17 14:14 | -9.98625 | -36.34907 | 21876 ft | 370 kts | 49° |
| 2026-04-17 14:15 | -9.96951 | -36.32927 | 21380 ft | 367 kts | 48° |
| 2026-04-17 14:15 | -9.95295 | -36.30969 | 20883 ft | 364 kts | 48° |
| 2026-04-17 14:15 | -9.93655 | -36.29030 | 20399 ft | 361 kts | 48° |
| 2026-04-17 14:15 | -9.92024 | -36.27102 | 19909 ft | 358 kts | 48° |
| 2026-04-17 14:16 | -9.90407 | -36.25191 | 19430 ft | 356 kts | 48° |
| 2026-04-17 14:16 | -9.88798 | -36.23289 | 18931 ft | 354 kts | 48° |
| 2026-04-17 14:16 | -9.87216 | -36.21419 | 18443 ft | 352 kts | 48° |
| 2026-04-17 14:16 | -9.85620 | -36.19534 | 17914 ft | 351 kts | 48° |
| 2026-04-17 14:17 | -9.84038 | -36.17665 | 17395 ft | 348 kts | 48° |
| 2026-04-17 14:17 | -9.82463 | -36.15805 | 16895 ft | 345 kts | 48° |
| 2026-04-17 14:17 | -9.80907 | -36.13968 | 16417 ft | 342 kts | 48° |
| 2026-04-17 14:17 | -9.79364 | -36.12146 | 15933 ft | 339 kts | 48° |
| 2026-04-17 14:18 | -9.77833 | -36.10337 | 15452 ft | 337 kts | 48° |
| 2026-04-17 14:18 | -9.76313 | -36.08543 | 14986 ft | 334 kts | 48° |
| 2026-04-17 14:18 | -9.74912 | -36.06889 | 14554 ft | 332 kts | 48° |
| 2026-04-17 14:18 | -9.73432 | -36.05144 | 14075 ft | 330 kts | 48° |
| 2026-04-17 14:19 | -9.71940 | -36.03384 | 13585 ft | 328 kts | 48° |
| 2026-04-17 14:19 | -9.70455 | -36.01632 | 13068 ft | 326 kts | 49° |
| 2026-04-17 14:19 | -9.68984 | -35.99896 | 12581 ft | 323 kts | 49° |
| 2026-04-17 14:19 | -9.67523 | -35.98174 | 12105 ft | 320 kts | 49° |
| 2026-04-17 14:20 | -9.66075 | -35.96467 | 11641 ft | 317 kts | 49° |
| 2026-04-17 14:20 | -9.64644 | -35.94779 | 11178 ft | 315 kts | 49° |
| 2026-04-17 14:20 | -9.63221 | -35.93102 | 10735 ft | 312 kts | 50° |
| 2026-04-17 14:20 | -9.61809 | -35.91438 | 10265 ft | 310 kts | 50° |
| 2026-04-17 14:21 | -9.60424 | -35.89805 | 10073 ft | 299 kts | 50° |
| 2026-04-17 14:21 | -9.59093 | -35.88236 | 9862 ft | 290 kts | 50° |
| 2026-04-17 14:21 | -9.57779 | -35.86687 | 9439 ft | 289 kts | 50° |
| 2026-04-17 14:21 | -9.56473 | -35.85149 | 9036 ft | 287 kts | 50° |
| 2026-04-17 14:22 | -9.55177 | -35.83623 | 8626 ft | 285 kts | 50° |
| 2026-04-17 14:22 | -9.53794 | -35.82204 | 8197 ft | 285 kts | 36° |
| 2026-04-17 14:22 | -9.51983 | -35.81473 | 7798 ft | 284 kts | 8° |
| 2026-04-17 14:22 | -9.50055 | -35.81659 | 7414 ft | 278 kts | 341° |
| 2026-04-17 14:23 | -9.48453 | -35.82669 | 7084 ft | 267 kts | 316° |
| 2026-04-17 14:23 | -9.47333 | -35.84116 | 6719 ft | 255 kts | 304° |
| 2026-04-17 14:23 | -9.46379 | -35.85590 | 6359 ft | 246 kts | 303° |
| 2026-04-17 14:23 | -9.45454 | -35.87031 | 6028 ft | 241 kts | 303° |
| 2026-04-17 14:24 | -9.44550 | -35.88422 | 5723 ft | 233 kts | 303° |
| 2026-04-17 14:24 | -9.43670 | -35.89763 | 5419 ft | 224 kts | 303° |
| 2026-04-17 14:24 | -9.42824 | -35.91049 | 5122 ft | 213 kts | 303° |
| 2026-04-17 14:24 | -9.42019 | -35.92269 | 4849 ft | 203 kts | 303° |
| 2026-04-17 14:25 | -9.41388 | -35.93500 | 4567 ft | 196 kts | 282° |
| 2026-04-17 14:25 | -9.41247 | -35.94837 | 4338 ft | 189 kts | 264° |
| 2026-04-17 14:25 | -9.41519 | -35.96127 | 4112 ft | 189 kts | 245° |
| 2026-04-17 14:25 | -9.42191 | -35.97241 | 3860 ft | 184 kts | 224° |
| 2026-04-17 14:26 | -9.43145 | -35.98004 | 3719 ft | 170 kts | 205° |
| 2026-04-17 14:26 | -9.44235 | -35.98385 | 3641 ft | 165 kts | 186° |
| 2026-04-17 14:26 | -9.45379 | -35.98399 | 3556 ft | 165 kts | 169° |
| 2026-04-17 14:26 | -9.46468 | -35.98046 | 3488 ft | 165 kts | 151° |
| 2026-04-17 14:27 | -9.47391 | -35.97367 | 3418 ft | 163 kts | 136° |
| 2026-04-17 14:27 | -9.48127 | -35.96500 | 3342 ft | 163 kts | 124° |
| 2026-04-17 14:27 | -9.48580 | -35.95459 | 3259 ft | 162 kts | 104° |
| 2026-04-17 14:27 | -9.48782 | -35.94319 | 3131 ft | 167 kts | 101° |
| 2026-04-17 14:28 | -9.48955 | -35.93159 | 2916 ft | 166 kts | 100° |
| 2026-04-17 14:28 | -9.49121 | -35.92010 | 2694 ft | 163 kts | 101° |
| 2026-04-17 14:28 | -9.49274 | -35.90922 | 2514 ft | 146 kts | 102° |
| 2026-04-17 14:28 | -9.49412 | -35.89941 | 2304 ft | 136 kts | 102° |
| 2026-04-17 14:29 | -9.49542 | -35.89015 | 2122 ft | 129 kts | 102° |
| 2026-04-17 14:29 | -9.49671 | -35.88104 | 1959 ft | 134 kts | 101° |
| 2026-04-17 14:29 | -9.49799 | -35.87178 | 1785 ft | 131 kts | 103° |
| 2026-04-17 14:29 | -9.49926 | -35.86275 | 1609 ft | 131 kts | 101° |
| 2026-04-17 14:30 | -9.50077 | -35.85365 | 1420 ft | 132 kts | 103° |
| 2026-04-17 14:30 | -9.50161 | -35.84444 | 1245 ft | 133 kts | 97° |
| 2026-04-17 14:30 | -9.50253 | -35.83504 | 1056 ft | 135 kts | 104° |
| 2026-04-17 14:30 | -9.50420 | -35.82567 | 934 ft | 134 kts | 105° |
| 2026-04-17 14:31 | -9.50593 | -35.81655 | 727 ft | 131 kts | 105° |
| 2026-04-17 14:31 | -9.50779 | -35.80748 | 558 ft | 131 kts | 105° |
| 2026-04-17 14:31 | -9.50954 | -35.79860 | 402 ft | 122 kts | 104° |
| 2026-04-17 14:31 | -9.51081 | -35.79191 | 398 ft | 66 kts | 100° |
| 2026-04-17 14:32 | -9.51138 | -35.78879 | 399 ft | 39 kts | 101° |
| 2026-04-17 14:32 | -9.51185 | -35.78624 | 400 ft | 35 kts | 100° |
| 2026-04-17 14:32 | -9.51228 | -35.78395 | 403 ft | 31 kts | 100° |
| 2026-04-17 14:32 | -9.51264 | -35.78205 | 399 ft | 24 kts | 101° |
| 2026-04-17 14:33 | -9.51285 | -35.78095 | 402 ft | 11 kts | 102° |
| 2026-04-17 14:33 | -9.51344 | -35.78066 | 401 ft | 11 kts | 208° |
| 2026-04-17 14:33 | -9.51389 | -35.78127 | 401 ft | 11 kts | 236° |
| 2026-04-17 14:33 | -9.51422 | -35.78194 | 400 ft | 11 kts | 258° |
| 2026-04-17 14:34 | -9.51416 | -35.78267 | 400 ft | 10 kts | 281° |
| 2026-04-17 14:34 | -9.51402 | -35.78336 | 400 ft | 10 kts | 282° |
| 2026-04-17 14:34 | -9.51390 | -35.78403 | 400 ft | 10 kts | 281° |
| 2026-04-17 14:34 | -9.51378 | -35.78470 | 399 ft | 9 kts | 281° |
| 2026-04-17 14:35 | -9.51366 | -35.78534 | 400 ft | 9 kts | 281° |
| 2026-04-17 14:35 | -9.51354 | -35.78597 | 400 ft | 9 kts | 281° |
| 2026-04-17 14:35 | -9.51342 | -35.78658 | 400 ft | 9 kts | 281° |
| 2026-04-17 14:35 | -9.51330 | -35.78724 | 400 ft | 11 kts | 281° |
| 2026-04-17 14:36 | -9.51315 | -35.78802 | 400 ft | 11 kts | 281° |
| 2026-04-17 14:36 | -9.51300 | -35.78880 | 400 ft | 11 kts | 280° |
| 2026-04-17 14:36 | -9.51287 | -35.78952 | 400 ft | 9 kts | 278° |
| 2026-04-17 14:36 | -9.51315 | -35.79006 | 400 ft | 9 kts | 217° |
| 2026-04-17 14:37 | -9.51357 | -35.79051 | 400 ft | 9 kts | 253° |
| 2026-04-17 14:37 | -9.51352 | -35.79111 | 400 ft | 9 kts | 280° |
| 2026-04-17 14:37 | -9.51342 | -35.79169 | 400 ft | 8 kts | 280° |
| 2026-04-17 14:37 | -9.51334 | -35.79217 | 400 ft | 4 kts | 278° |
| 2026-04-17 14:38 | -9.51342 | -35.79237 | 399 ft | 2 kts | 201° |
| 2026-04-17 14:38 | -9.51360 | -35.79241 | 400 ft | 4 kts | 191° |
| 2026-04-17 14:38 | -9.51387 | -35.79246 | 400 ft | 1 kts | 191° |
| 2026-04-17 14:38 | -9.51391 | -35.79247 | 400 ft | 0 kts | 191° |